Harmony Corners, New York
Current Conditions -  °F | °C
As of 11:29 PM on Saturday 20 Dec 2014 (Local Time) from KALB Reporting Station
Overcast Overcast  
Wind Chill: 23°   Ceiling: 2900
Heat Index: 28°   Visibility: 10mi
Dew Point: 20°   Wind: 5mph
Humidity: 72%   Direction: 10°N
Pressure: 30.31"   Gusts: NA
Location:  43.002°N, 73.8759°W
Report Text: KALB 210429Z 01004KT 10SM OVC029 M02/M07 A3031 RMK AO2 T10221067
Loading
Personal Weather Stations






























Interactive Weather Map New forecast layout! Learn more

10-Day Weather Forecast

Advertisements
Track Severe Weather on mobile